Latest Weather Observations for East Sale Airport

IDV60801

Issued at 6:02 am EDT Monday 9 December 2019 (issued every 10 minutes, with the page automatically refreshed every 10 minutes)

About weather observations | Map of weather stations | Latest weather observations for VIC | Other Formats
Station Details ID: 085314 Name: EAST SALE AIRPORT Lat: -38.10 Lon: 147.14 Height: 5.3 m
Data from the previous 72 hours. | See also: Recent months at East Sale Airport
Date/Time
EDT
Temp
°C
App
Temp
°C
Dew
Point
°C
Rel
Hum
%
Delta-T
°C
Wind Press
QNH
hPa
Press
MSL
hPa
Rain since
9am
mm
Dir  Spd
km/h
Gust
km/h
Spd
kts
Gust
kts
09/06:00am 10.1 10.0 9.5 96 0.3 CALM 0 4 0 2 1015.4 - 0.0
09/05:30am 10.5 9.4 9.9 96 0.3 N 6 6 3 3 1015.4 - 0.0
09/05:00am 11.0 10.0 10.4 96 0.3 N 6 6 3 3 1015.6 - 0.0
09/04:30am 11.0 10.0 10.2 95 0.4 NNE 6 6 3 3 1015.8 - 0.0
09/04:00am 11.6 10.7 10.7 94 0.5 NNE 6 7 3 4 1016.0 - 0.0
09/03:30am 11.7 10.8 10.8 94 0.5 NNE 6 7 3 4 1016.5 - 0.0
09/03:00am 12.1 11.1 11.0 93 0.6 NE 7 11 4 6 1016.9 - 0.0
09/02:30am 12.0 11.5 10.7 92 0.7 NNE 4 6 2 3 1017.7 - 0.0
09/02:00am 12.5 11.5 11.1 91 0.7 NNE 7 11 4 6 1018.2 - 0.0
09/01:30am 12.9 11.3 11.5 91 0.7 ENE 11 13 6 7 1018.3 - 0.0
09/01:00am 12.7 11.0 11.1 90 0.8 ENE 11 13 6 7 1018.8 - 0.0
09/12:30am 13.2 11.9 11.3 88 1.0 NE 9 11 5 6 1019.3 - 0.0
09/12:00am 13.4 11.3 11.3 87 1.1 NE 13 15 7 8 1019.4 - 0.0
 
Date/Time
EDT
Temp
°C
App
Temp
°C
Dew
Point
°C
Rel
Hum
%
Delta-T
°C
Wind Press
QNH
hPa
Press
MSL
hPa
Rain since
9am
mm
Dir  Spd
km/h
Gust
km/h
Spd
kts
Gust
kts
08/11:30pm 13.5 11.8 11.2 86 1.2 NE 11 17 6 9 1019.8 - 0.0
08/11:00pm 13.6 11.5 11.3 86 1.2 ENE 13 17 7 9 1020.1 - 0.0
08/10:30pm 13.3 11.9 10.8 85 1.3 ENE 9 11 5 6 1020.3 - 0.0
08/10:00pm 13.9 11.4 11.2 84 1.4 E 15 17 8 9 1020.3 - 0.0
08/09:30pm 14.2 11.4 11.2 82 1.6 E 17 22 9 12 1020.1 - 0.0
08/09:00pm 14.4 11.5 11.0 80 1.8 E 17 20 9 11 1020.2 - 0.0
08/08:30pm 14.8 11.3 10.8 77 2.1 E 20 26 11 14 1020.0 - 0.0
08/08:00pm 15.4 11.4 10.6 73 2.5 E 22 28 12 15 1020.0 - 0.0
08/07:30pm 16.3 11.8 10.2 67 3.2 E 24 30 13 16 1019.6 - 0.0
08/07:00pm 17.2 12.5 10.6 65 3.5 E 26 32 14 17 1019.2 - 0.0
08/06:30pm 17.6 12.7 10.0 61 4.0 E 26 33 14 18 1018.8 - 0.0
08/06:00pm 18.1 13.0 10.5 61 4.1 E 28 33 15 18 1018.7 - 0.0
08/05:30pm 18.6 13.3 9.9 57 4.6 ESE 28 33 15 18 1018.5 - 0.0
08/05:00pm 19.5 14.2 9.7 53 5.2 ESE 28 35 15 19 1018.6 - 0.0
08/04:30pm 19.2 13.9 9.9 55 5.0 ESE 28 35 15 19 1019.0 - 0.0
08/04:00pm 19.6 14.0 8.9 50 5.6 ESE 28 35 15 19 1018.9 - 0.0
08/03:30pm 21.0 16.2 8.9 46 6.4 ESE 24 30 13 16 1018.7 - 0.0
08/03:00pm 20.6 16.3 9.2 48 6.0 ESE 22 32 12 17 1018.6 - 0.0
08/02:30pm 20.8 16.6 9.7 49 5.9 ESE 22 30 12 16 1018.7 - 0.0
08/02:00pm 20.8 17.0 9.7 49 5.9 E 20 28 11 15 1018.8 - 0.0
08/01:30pm 20.3 16.9 9.2 49 5.9 E 17 28 9 15 1018.9 - 0.0
08/01:00pm 20.5 17.2 9.7 50 5.8 ESE 17 28 9 15 1019.1 - 0.0
08/12:30pm 20.4 17.4 10.5 53 5.4 ENE 17 26 9 14 1019.4 - 0.0
08/12:00pm 18.6 17.0 8.8 53 5.1 SE 7 13 4 7 1019.8 - 0.0
08/11:30am 18.0 15.2 8.6 54 4.9 WSW 13 17 7 9 1020.2 - 0.0
08/11:00am 17.4 15.4 8.8 57 4.4 SSE 9 15 5 8 1020.1 - 0.0
08/10:30am 16.7 14.8 8.9 60 4.0 NW 9 13 5 7 1020.2 - 0.0
08/10:00am 15.6 13.7 9.1 65 3.3 NNW 9 15 5 8 1020.3 - 0.0
08/09:30am 15.5 13.3 9.2 66 3.2 N 11 19 6 10 1020.4 - 0.0
08/09:00am 14.8 12.8 8.5 66 3.2 NW 9 13 5 7 1020.5 - 0.0
08/08:30am 14.7 11.5 8.4 66 3.2 WSW 15 22 8 12 1020.4 - 0.0
08/08:00am 14.4 11.6 8.4 67 3.0 WSW 13 17 7 9 1020.3 - 0.0
08/07:30am 13.0 11.2 9.4 79 1.8 N 9 11 5 6 1020.2 - 0.0
08/07:00am 12.8 10.4 8.5 75 2.1 WNW 11 15 6 8 1019.7 - 0.0
08/06:30am 12.8 9.9 8.1 73 2.3 WSW 13 17 7 9 1019.6 - 0.0
08/06:00am 12.8 9.5 8.1 73 2.3 W 15 24 8 13 1019.3 - 0.0
08/05:30am 12.8 9.2 8.3 74 2.2 WSW 17 26 9 14 1019.1 - 0.0
08/05:00am 12.9 8.9 8.4 74 2.2 WSW 19 28 10 15 1018.7 - 0.0
08/04:30am 12.5 8.4 8.6 77 1.9 WSW 20 28 11 15 1018.7 - 0.0
08/04:00am 12.0 8.4 8.5 79 1.7 WSW 17 24 9 13 1018.5 - 0.0
08/03:30am 11.1 8.2 8.3 83 1.4 WSW 13 19 7 10 1018.4 - 0.0
08/03:00am 11.2 8.4 8.4 83 1.4 WSW 13 17 7 9 1017.9 - 0.0
08/02:30am 11.5 9.4 8.4 81 1.5 W 9 13 5 7 1017.9 - 0.0
08/02:00am 11.5 9.0 8.2 80 1.6 WSW 11 17 6 9 1017.7 - 0.0
08/01:30am 12.3 8.2 8.8 79 1.7 WSW 20 28 11 15 1017.5 - 0.0
08/01:00am 12.2 8.1 8.5 78 1.8 WSW 20 30 11 16 1017.7 - 0.0
08/12:30am 12.4 8.3 8.7 78 1.8 WSW 20 28 11 15 1017.5 - 0.0
08/12:00am 12.4 7.9 8.7 78 1.8 WSW 22 30 12 16 1017.7 - 0.0
 
Date/Time
EDT
Temp
°C
App
Temp
°C
Dew
Point
°C
Rel
Hum
%
Delta-T
°C
Wind Press
QNH
hPa
Press
MSL
hPa
Rain since
9am
mm
Dir  Spd
km/h
Gust
km/h
Spd
kts
Gust
kts
07/11:30pm 12.6 7.8 8.7 77 1.9 WSW 24 32 13 17 1017.8 - 0.0
07/11:00pm 12.9 8.5 9.0 77 2.0 WSW 22 32 12 17 1017.7 - 0.0
07/10:30pm 13.3 8.8 8.4 72 2.4 WSW 22 32 12 17 1017.8 - 0.0
07/10:00pm 13.9 9.6 7.9 67 3.0 W 20 28 11 15 1017.5 - 0.0
07/09:30pm 14.5 8.7 8.0 65 3.2 WSW 28 39 15 21 1017.2 - 0.0
07/09:00pm 15.5 10.3 8.7 64 3.5 WSW 26 35 14 19 1017.0 - 0.0
07/08:30pm 16.2 11.6 9.6 65 3.4 WSW 24 37 13 20 1016.7 - 0.0
07/08:00pm 17.5 13.3 9.7 60 4.1 WSW 22 32 12 17 1016.2 - 0.0
07/07:30pm 18.6 13.6 9.4 55 4.8 WSW 26 37 14 20 1015.7 - 0.0
07/07:00pm 19.7 15.0 9.3 51 5.5 WSW 24 39 13 21 1015.1 - 0.0
07/06:30pm 20.1 14.1 8.8 48 5.9 WSW 30 39 16 21 1014.9 - 0.0
07/06:00pm 20.4 13.8 8.7 47 6.1 WSW 33 46 18 25 1014.8 - 0.0
07/05:30pm 20.9 14.7 7.9 43 6.7 WSW 30 44 16 24 1014.3 - 0.0
07/05:00pm 21.4 14.5 8.7 44 6.7 W 35 50 19 27 1014.2 - 0.0
07/04:36pm 21.2 15.2 8.5 44 6.7 WSW 30 48 16 26 1014.1 - 0.0
07/04:30pm 21.3 15.1 9.5 47 6.3 WSW 32 46 17 25 1014.1 - 0.0
07/04:00pm 21.6 15.2 9.2 45 6.6 W 33 46 18 25 1014.0 - 0.0
07/03:30pm 21.5 15.4 9.7 47 6.3 WSW 32 44 17 24 1013.8 - 0.0
07/03:00pm 20.7 13.8 9.0 47 6.2 W 35 54 19 29 1013.6 - 0.0
07/02:42pm 20.5 14.0 8.8 47 6.2 WSW 33 52 18 28 1013.5 - 0.0
07/02:30pm 20.3 13.4 8.9 48 6.0 WSW 35 48 19 26 1013.4 - 0.0
07/02:00pm 20.0 13.4 8.4 47 6.0 W 33 44 18 24 1013.5 - 0.0
07/01:30pm 19.9 12.6 8.6 48 5.9 W 37 56 20 30 1013.7 - 0.0
07/01:26pm 19.7 13.0 8.1 47 6.0 W 33 56 18 30 1013.8 - 0.0
07/01:00pm 19.9 13.0 8.9 49 5.8 W 35 48 19 26 1013.7 - 0.0
07/12:39pm 19.3 12.6 8.0 48 5.8 W 33 54 18 29 1013.7 - 0.0
07/12:30pm 18.9 12.2 8.3 50 5.5 W 33 48 18 26 1013.8 - 0.0
07/12:11pm 18.3 10.8 8.0 51 5.3 W 37 56 20 30 1014.0 - 0.0
07/12:00pm 17.9 10.7 7.6 51 5.2 W 35 52 19 28 1014.2 - 0.0
07/11:41am 18.8 12.4 8.7 52 5.2 W 32 54 17 29 1014.2 - 0.0
07/11:30am 17.9 10.6 8.7 55 4.8 W 37 52 20 28 1014.3 - 0.0
07/11:13am 16.7 9.4 7.4 54 4.6 W 35 56 19 30 1014.5 - 0.0
07/11:00am 17.4 10.6 7.7 53 4.9 W 33 46 18 25 1014.6 - 0.0
07/10:50am 17.5 10.9 7.8 53 4.9 W 32 50 17 27 1014.7 - 0.0
07/10:30am 16.1 9.5 7.6 57 4.2 W 32 46 17 25 1014.9 - 0.0
07/10:21am 16.9 10.4 8.3 57 4.4 W 32 50 17 27 1014.8 - 0.0
07/10:00am 16.2 10.4 7.9 58 4.2 W 28 43 15 23 1014.8 - 0.0
07/09:30am 14.6 8.3 7.6 63 3.5 W 30 50 16 27 1015.0 - 0.0
07/09:05am 14.2 7.9 7.3 63 3.4 W 30 50 16 27 1015.1 - 0.0
07/09:00am 14.3 8.0 7.4 63 3.4 W 30 43 16 23 1015.1 - 0.0
07/08:30am 14.4 8.4 7.2 62 3.5 W 28 39 15 21 1014.5 - 0.0
07/08:00am 14.1 8.0 6.7 61 3.6 W 28 39 15 21 1014.4 - 0.0
07/07:30am 13.6 9.0 6.7 63 3.3 WNW 20 30 11 16 1014.0 - 0.0
07/07:00am 13.3 8.9 6.6 64 3.2 WNW 19 28 10 15 1013.9 - 0.0
07/06:30am 12.8 9.5 6.6 66 3.0 W 13 20 7 11 1013.8 - 0.0
07/06:00am 12.6 8.5 6.4 66 2.9 W 17 22 9 12 1013.5 - 0.0
07/05:30am 12.7 8.2 6.1 64 3.1 W 19 28 10 15 1013.3 - 0.0
07/05:00am 12.8 8.1 5.9 63 3.2 W 20 30 11 16 1013.0 - 0.0
07/04:30am 12.8 8.2 5.7 62 3.3 WNW 19 24 10 13 1012.5 - 0.0
07/04:00am 13.0 8.3 5.9 62 3.3 W 20 30 11 16 1012.5 - 0.0
07/03:30am 12.9 7.8 6.0 63 3.3 WNW 22 32 12 17 1012.4 - 0.0
07/03:00am 12.8 8.6 5.7 62 3.3 W 17 26 9 14 1012.6 - 0.0
07/02:30am 12.6 7.9 6.0 64 3.1 WNW 20 30 11 16 1012.9 - 0.0
07/02:00am 12.5 7.4 6.1 65 3.0 W 22 30 12 16 1013.1 - 0.0
07/01:30am 12.8 6.7 6.8 67 2.9 WNW 28 39 15 21 1013.1 - 0.0
07/01:00am 13.0 7.5 7.5 69 2.7 W 26 37 14 20 1012.9 - 0.0
07/12:30am 13.1 7.5 7.1 67 2.9 W 26 37 14 20 1013.2 - 0.0
07/12:00am 13.3 8.4 7.1 66 3.0 W 22 35 12 19 1013.3 - 0.0
 
Date/Time
EDT
Temp
°C
App
Temp
°C
Dew
Point
°C
Rel
Hum
%
Delta-T
°C
Wind Press
QNH
hPa
Press
MSL
hPa
Rain since
9am
mm
Dir  Spd
km/h
Gust
km/h
Spd
kts
Gust
kts
06/11:30pm 13.4 8.7 7.6 68 2.8 WNW 22 32 12 17 1013.1 - 0.0
06/11:00pm 13.5 8.2 6.8 64 3.2 W 24 35 13 19 1013.2 - 0.0
06/10:30pm 13.6 8.4 7.4 66 3.0 W 24 33 13 18 1013.2 - 0.0
06/10:00pm 13.4 7.9 7.4 67 2.9 WSW 26 37 14 20 1012.8 - 0.0
06/09:30pm 13.6 7.0 7.6 67 2.9 WSW 32 41 17 22 1012.3 - 0.0
06/09:00pm 14.0 6.8 7.5 65 3.2 W 35 50 19 27 1011.4 - 0.0
06/08:30pm 14.4 6.8 7.7 64 3.3 W 37 54 20 29 1011.0 - 0.0
06/08:05pm 15.0 8.5 8.0 63 3.5 W 32 50 17 27 1011.0 - 0.0
06/08:00pm 15.2 8.1 8.0 62 3.6 WSW 35 50 19 27 1010.6 - 0.0
06/07:32pm 16.7 10.0 8.1 57 4.4 W 33 52 18 28 1010.1 - 0.0
06/07:30pm 16.8 9.7 8.2 57 4.4 W 35 52 19 28 1010.0 - 0.0
06/07:06pm 17.5 10.0 7.8 53 4.9 WSW 37 56 20 30 1009.7 - 0.0
06/07:00pm 17.7 9.5 8.3 54 4.8 W 41 56 22 30 1009.4 - 0.0
06/06:30pm 18.3 10.8 8.0 51 5.3 W 37 57 20 31 1008.9 - 0.0
06/06:00pm 18.7 10.0 7.8 49 5.6 W 43 61 23 33 1008.2 - 0.0
06/05:31pm 19.7 11.4 7.8 46 6.1 WSW 41 59 22 32 1008.0 - 0.0
06/05:30pm 19.4 10.7 7.5 46 6.1 WSW 43 59 23 32 1007.9 - 0.0
06/05:00pm 20.3 11.4 7.0 42 6.8 W 43 67 23 36 1007.9 - 0.0
06/04:30pm 20.5 11.2 6.1 39 7.2 W 44 67 24 36 1007.8 - 0.0
06/04:00pm 20.3 11.2 5.9 39 7.2 WSW 43 67 23 36 1007.7 - 0.0
06/03:30pm 20.4 11.1 5.2 37 7.5 W 43 70 23 38 1007.7 - 0.0
06/03:00pm 20.4 11.0 7.1 42 6.8 W 46 65 25 35 1007.9 - 0.0
06/02:30pm 20.0 11.0 7.1 43 6.6 W 44 63 24 34 1008.1 - 0.0
06/02:00pm 19.2 9.6 6.3 43 6.4 W 46 74 25 40 1007.9 - 0.0
06/01:30pm 19.5 11.6 6.3 42 6.6 W 37 59 20 32 1008.4 - 0.0
06/01:00pm 19.4 10.2 5.5 40 6.8 W 43 65 23 35 1007.9 - 0.0
06/12:30pm 19.4 10.6 7.2 45 6.2 W 43 63 23 34 1008.2 - 0.0
06/12:00pm 19.0 11.3 7.1 46 6.0 W 37 57 20 31 1008.1 - 0.0
06/11:36am 18.2 9.1 6.1 45 6.0 W 43 69 23 37 1008.1 - 0.0
06/11:32am 18.1 9.0 6.0 45 5.9 W 43 63 23 34 1008.1 - 0.0
06/11:30am 18.5 9.7 7.3 48 5.7 W 43 54 23 29 1008.1 - 0.0
06/11:00am 17.3 7.9 5.6 46 5.7 W 44 67 24 36 1008.5 - 0.0
06/10:30am 16.8 8.1 6.0 49 5.2 W 41 61 22 33 1008.4 - 0.0
06/10:00am 16.8 7.9 6.9 52 4.9 W 43 59 23 32 1008.0 - 0.0
06/09:30am 15.7 8.7 6.7 55 4.4 W 33 52 18 28 1008.0 - 0.0
06/09:00am 15.4 8.6 6.9 57 4.2 W 32 46 17 25 1008.5 - 0.0
06/08:54am 15.4 9.3 6.7 56 4.2 W 28 46 15 25 1008.4 - 0.0
06/08:30am 15.1 8.4 7.2 59 3.9 W 32 41 17 22 1008.4 - 0.0
06/08:00am 14.4 8.8 7.2 62 3.5 WNW 26 43 14 23 1008.3 - 0.0
06/07:30am 13.9 7.6 7.2 64 3.3 WNW 30 41 16 22 1007.9 - 0.0
06/07:14am 13.6 7.7 7.4 66 3.0 WNW 28 46 15 25 1007.9 - 0.0
06/07:00am 13.3 7.5 8.0 70 2.6 W 28 37 15 20 1007.9 - 0.0
06/06:30am 13.6 7.7 7.6 67 2.9 W 28 39 15 21 1007.9 - 0.0

Other formats

Comma delimited format used in spreadsheet applications
http://www.bom.gov.au/fwo/IDV60801/IDV60801.95907.axf

JavaScript Object Notation format (JSON) in row-major order
http://www.bom.gov.au/fwo/IDV60801/IDV60801.95907.json

Data quality

Most of these data are generated automatically and are frequently updated. Quality checks on data are not normally performed. It is possible for incorrect values to appear. Refer to information at About Latest Weather Observations and please check the disclaimer before using these data.